This is the latest recevied weather packets stored in our database for station/object HB9SZU-7. If no packets are shown the sender has not sent any weather packets the latest 10 day(s).
| Time | Temp. | Humidity | Pressure | Rain* | Wind** | Luminosity | Snow |
|---|---|---|---|---|---|---|---|
| 1777886990 | 15.56° C | 55% | 938.2 hPa | - | - | - | - |
| 1777886030 | 15° C | 55% | 938.2 hPa | - | - | - | - |
| 1777885069 | 15° C | 54% | 938.3 hPa | - | - | - | - |
| 1777884109 | 14.44° C | 57% | 938.2 hPa | - | - | - | - |
| 1777883149 | 14.44° C | 58% | 938.2 hPa | - | - | - | - |
| 1777882189 | 14.44° C | 56% | 938.1 hPa | - | - | - | - |
| 1777881230 | 14.44° C | 56% | 937.8 hPa | - | - | - | - |
| 1777880270 | 14.44° C | 54% | 937.7 hPa | - | - | - | - |
| 1777879310 | 13.89° C | 56% | 937.6 hPa | - | - | - | - |
| 1777878350 | 14.44° C | 56% | 938 hPa | - | - | - | - |
| 1777877390 | 13.89° C | 57% | 937.8 hPa | - | - | - | - |
| 1777876430 | 13.33° C | 58% | 937.7 hPa | - | - | - | - |
| 1777875470 | 12.78° C | 60% | 937.4 hPa | - | - | - | - |
| 1777874509 | 12.22° C | 59% | 937.3 hPa | - | - | - | - |
| 1777873550 | 12.22° C | 60% | 937.3 hPa | - | - | - | - |
| 1777872590 | 11.67° C | 58% | 937.2 hPa | - | - | - | - |
| 1777871630 | 11.67° C | 58% | 937 hPa | - | - | - | - |
| 1777870669 | 11.67° C | 57% | 936.9 hPa | - | - | - | - |
| 1777869710 | 11.67° C | 58% | 936.7 hPa | - | - | - | - |
| 1777868750 | 11.67° C | 58% | 936.7 hPa | - | - | - | - |
| 1777867789 | 11.67° C | 58% | 936.8 hPa | - | - | - | - |
| 1777866832 | 11.67° C | 57% | 936.9 hPa | - | - | - | - |
| 1777842830 | 13.89° C | 55% | 938.2 hPa | - | - | - | - |
| 1777839949 | 14.44° C | 54% | 938.3 hPa | - | - | - | - |
| 1777836110 | 15° C | 53% | 937.6 hPa | - | - | - | - |
* Rain since midnight (hover to see other rain measurements)
** Current wind speed in m/s (hover to see current wind gust speed)